Time;durP1;ratioP1;P1;durP2;ratioP2;P2;SDS_P1;SDS_P2;PMS_P1;PMS_P2;Temp;Humidity;BMP_temperature;BMP_pressure;BME280_temperature;BME280_humidity;BME280_pressure;Samples;Min_cycle;Max_cycle;Signal;HPM_P1;HPM_P2
2022/03/13 00:00:51;618851.00;2.06;1066.78;33648.00;0.11;58.90;;;;;10.60;1.00;;;;;;2276402;61;921;-86
2022/03/13 00:03:21;198168.00;0.66;342.77;0.00;0.00;0.62;;;;;10.60;1.00;;;;;;2276389;61;1565;-86
2022/03/13 00:05:51;263372.00;0.88;454.95;53572.00;0.18;93.36;;;;;10.70;1.00;;;;;;2276305;61;1725;-87
2022/03/13 00:08:22;104719.00;0.35;181.72;0.00;0.00;0.62;;;;;10.70;1.00;;;;;;2276378;61;1047;-87
2022/03/13 00:10:55;56631.00;0.19;98.65;0.00;0.00;0.62;;;;;10.70;1.00;;;;;;2276413;61;1163;-87
2022/03/13 00:13:24;227722.00;0.76;393.63;23473.00;0.08;41.28;;;;;10.60;1.00;;;;;;2276385;61;1716;-85
2022/03/13 00:15:52;297440.00;0.99;513.52;12107.00;0.04;21.60;;;;;10.60;1.00;;;;;;2276344;61;1998;-85
2022/03/13 00:18:20;432508.00;1.44;745.70;49551.00;0.17;86.41;;;;;10.90;1.00;;;;;;2280414;39;3633;-87
2022/03/13 00:20:51;73063.00;0.24;127.05;0.00;0.00;0.62;;;;;11.20;1.00;;;;;;2272355;61;1246;-87
2022/03/13 00:23:19;258239.00;0.86;446.12;0.00;0.00;0.62;;;;;11.80;1.00;;;;;;2272331;61;1327;-86
2022/03/13 00:28:15;795207.00;2.65;1372.77;0.00;0.00;0.62;;;;;11.80;1.00;;;;;;2270236;61;1432;-88
2022/03/13 00:30:42;152700.00;0.51;264.46;0.00;0.00;0.62;;;;;12.00;1.00;;;;;;2274989;55;3762;-86
2022/03/13 00:33:10;267991.00;0.89;462.89;0.00;0.00;0.62;;;;;11.90;1.00;;;;;;2276140;61;1736;-87
2022/03/13 00:35:38;125861.00;0.42;218.19;0.00;0.00;0.62;;;;;11.60;1.00;;;;;;2276326;61;2159;-87
2022/03/13 00:38:07;529202.00;1.76;912.12;0.00;0.00;0.62;;;;;11.70;1.00;;;;;;2276331;61;1025;-87
2022/03/13 00:40:34;172558.00;0.58;298.67;0.00;0.00;0.62;;;;;11.90;1.00;;;;;;2276254;61;1755;-87
2022/03/13 00:43:01;66291.00;0.22;115.35;0.00;0.00;0.62;;;;;12.10;1.00;;;;;;2276327;61;1152;-87
2022/03/13 00:45:29;248065.00;0.83;428.62;0.00;0.00;0.62;;;;;11.30;1.00;;;;;;2276314;61;1293;-87
2022/03/13 00:47:57;305584.00;1.02;527.52;12763.00;0.04;22.74;;;;;11.30;1.00;;;;;;2276278;61;1155;-89
2022/03/13 00:50:24;226120.00;0.75;390.87;0.00;0.00;0.62;;;;;11.40;1.00;;;;;;2276150;61;1015;-87
2022/03/13 00:52:53;254573.00;0.85;439.82;0.00;0.00;0.62;;;;;11.70;1.00;;;;;;2276167;61;1018;-87
2022/03/13 00:55:22;661946.00;2.21;1141.31;95923.00;0.32;166.53;;;;;12.10;1.00;;;;;;2276165;61;2392;-89
2022/03/13 00:57:49;308801.00;1.03;533.05;0.00;0.00;0.62;;;;;11.90;1.00;;;;;;2276265;61;1575;-87
2022/03/13 01:00:16;354061.00;1.18;610.84;0.00;0.00;0.62;;;;;11.50;1.00;;;;;;2276245;61;1558;-87
2022/03/13 01:02:44;568538.00;1.90;979.93;39555.00;0.13;69.12;;;;;10.80;1.00;;;;;;2276253;61;1062;-87
2022/03/13 01:05:11;1264062.00;4.21;2206.48;50214.00;0.17;87.56;;;;;11.00;1.00;;;;;;2276082;61;1357;-87
2022/03/13 01:07:40;1035838.00;3.45;1796.05;40567.00;0.14;70.87;;;;;11.50;1.00;;;;;;2276291;61;1045;-86
2022/03/13 01:10:08;1323405.00;4.41;2315.00;152309.00;0.51;263.79;;;;;11.80;1.00;;;;;;2276101;61;1011;-88
2022/03/13 01:12:37;1017776.00;3.39;1763.98;36564.00;0.12;63.94;;;;;12.10;1.00;;;;;;2276241;61;971;-87
2022/03/13 01:15:06;773658.00;2.58;1335.22;6271.00;0.02;11.49;;;;;12.00;1.00;;;;;;2276138;61;2012;-88
2022/03/13 01:17:33;850881.00;2.84;1470.01;87351.00;0.29;151.73;;;;;12.00;1.00;;;;;;2276181;61;916;-89
2022/03/13 01:20:01;1051062.00;3.50;1823.12;105034.00;0.35;182.26;;;;;12.10;1.00;;;;;;2280054;55;3789;-87
2022/03/13 01:22:28;913585.00;3.05;1579.99;42936.00;0.14;74.97;;;;;11.90;1.00;;;;;;2272147;61;1073;-86
2022/03/13 01:24:56;1223836.00;4.08;2133.38;42518.00;0.14;74.24;;;;;11.50;1.00;;;;;;2280990;56;3777;-88
2022/03/13 01:27:23;961796.00;3.21;1664.92;10399.00;0.03;18.64;;;;;11.60;1.00;;;;;;2276819;61;1072;-88
2022/03/13 01:29:51;1165583.00;3.89;2028.12;141309.00;0.47;244.83;;;;;11.50;1.00;;;;;;2276140;61;1080;-88
2022/03/13 01:32:19;1478972.00;4.93;2603.61;118402.00;0.39;205.33;;;;;11.60;1.00;;;;;;2276233;61;903;-88
2022/03/13 01:34:48;1311568.00;4.37;2293.29;141006.00;0.47;244.31;;;;;11.90;1.00;;;;;;2276127;61;2002;-87
2022/03/13 01:37:29;989552.00;3.30;1713.98;112051.00;0.37;194.37;;;;;12.00;1.00;;;;;;2276192;61;1125;-88
2022/03/13 01:39:57;1557985.00;5.19;2752.71;119172.00;0.40;206.65;;;;;12.00;1.00;;;;;;2276127;61;1250;-86
2022/03/13 01:42:24;1200338.00;4.00;2090.83;43072.00;0.14;75.20;;;;;11.70;1.00;;;;;;2276146;61;929;-87
2022/03/13 01:44:53;1846696.00;6.16;3314.15;292399.00;0.97;504.85;;;;;11.00;1.00;;;;;;2276053;61;1308;-85
2022/03/13 01:47:20;751435.00;2.50;1296.55;135872.00;0.45;235.45;;;;;10.60;1.00;;;;;;2276064;61;1506;-87
2022/03/13 01:49:48;117688976.00;392.30;66029628.00;91493.00;0.30;158.89;;;;;10.60;1.00;;;;;;2276126;61;979;-86
2022/03/13 01:52:16;653889.00;2.18;1127.37;81994.00;0.27;142.48;;;;;10.50;1.00;;;;;;2276049;61;1480;-87
2022/03/13 01:54:45;637883.00;2.13;1099.68;88542.00;0.30;153.79;;;;;10.70;1.00;;;;;;2276628;61;1924;-86
2022/03/13 01:59:42;1166321.00;3.89;2029.45;63820.00;0.21;111.08;;;;;11.50;1.00;;;;;;2270724;61;1233;-86
2022/03/13 02:02:12;428491.00;1.43;738.79;109066.00;0.36;189.22;;;;;11.50;1.00;;;;;;2268744;61;1294;-87
2022/03/13 02:04:40;383445.00;1.28;661.35;67039.00;0.22;116.64;;;;;11.60;1.00;;;;;;2268583;61;1437;-87
2022/03/13 02:07:07;410250.00;1.37;707.43;89891.00;0.30;156.12;;;;;11.60;1.00;;;;;;2268732;61;1030;-86
2022/03/13 02:09:35;328618.00;1.10;567.11;25680.00;0.09;45.10;;;;;10.70;1.00;;;;;;2268593;61;1044;-86
2022/03/13 02:12:04;305402.00;1.02;527.21;0.00;0.00;0.62;;;;;9.10;1.00;;;;;;2268521;61;1104;-86
2022/03/13 02:14:31;379661.00;1.27;654.84;0.00;0.00;0.62;;;;;8.30;1.00;;;;;;2268442;61;1679;-88
2022/03/13 02:16:58;206098.00;0.69;356.42;0.00;0.00;0.62;;;;;8.20;1.00;;;;;;2268529;61;2013;-85
2022/03/13 02:19:26;178045.00;0.59;308.12;0.00;0.00;0.62;;;;;7.60;1.00;;;;;;2268651;61;1039;-87
2022/03/13 02:21:53;250174.00;0.83;432.25;25384.00;0.08;44.59;;;;;8.30;1.00;;;;;;2268656;61;1469;-86
2022/03/13 02:24:24;367377.00;1.22;633.73;0.00;0.00;0.62;;;;;9.40;1.00;;;;;;2268551;61;1500;-87
2022/03/13 02:27:00;7105.00;0.02;12.93;0.00;0.00;0.62;;;;;10.30;1.00;;;;;;2268555;61;1067;-86
2022/03/13 02:29:28;136587.00;0.46;236.69;0.00;0.00;0.62;;;;;10.90;1.00;;;;;;2268640;61;1038;-86
2022/03/13 02:31:56;331258.00;1.10;571.65;0.00;0.00;0.62;;;;;10.70;1.00;;;;;;2268516;61;1435;-86
2022/03/13 02:34:24;191756.00;0.64;331.73;0.00;0.00;0.62;;;;;10.70;1.00;;;;;;2268538;61;1384;-87
2022/03/13 02:36:57;322164.00;1.07;556.02;0.00;0.00;0.62;;;;;10.70;1.00;;;;;;2268515;61;1924;-85
2022/03/13 02:39:26;153738.00;0.51;266.25;0.00;0.00;0.62;;;;;9.80;1.00;;;;;;2268559;61;1134;-85
2022/03/13 02:41:54;550937.00;1.84;949.57;0.00;0.00;0.62;;;;;9.50;1.00;;;;;;2268215;61;1608;-85
2022/03/13 02:44:21;350348.00;1.17;604.46;0.00;0.00;0.62;;;;;9.90;1.00;;;;;;2268568;61;1270;-86
2022/03/13 02:47:00;319740.00;1.07;551.85;0.00;0.00;0.62;;;;;9.80;1.00;;;;;;2268535;61;1606;-87
2022/03/13 02:49:29;251649.00;0.84;434.79;0.00;0.00;0.62;;;;;9.70;1.00;;;;;;2268571;61;1595;-86
2022/03/13 02:52:00;79476.00;0.26;138.13;0.00;0.00;0.62;;;;;9.90;1.00;;;;;;2268617;61;1550;-87
2022/03/13 02:54:30;316679.00;1.06;546.59;0.00;0.00;0.62;;;;;10.40;1.00;;;;;;2268363;61;1559;-86
2022/03/13 02:56:57;520406.00;1.73;896.96;0.00;0.00;0.62;;;;;10.70;1.00;;;;;;2281328;56;3753;-84
2022/03/13 02:59:24;113105.00;0.38;196.19;0.00;0.00;0.62;;;;;11.20;1.00;;;;;;2272539;61;1692;-87
2022/03/13 03:01:52;189019.00;0.63;327.02;0.00;0.00;0.62;;;;;11.50;1.00;;;;;;2272387;61;1235;-87
2022/03/13 03:04:22;257153.00;0.86;444.25;62195.00;0.21;108.27;;;;;11.70;1.00;;;;;;2272438;61;1564;-87
2022/03/13 03:06:56;307676.00;1.03;531.11;0.00;0.00;0.62;;;;;11.70;1.00;;;;;;2272549;61;1002;-85
2022/03/13 03:09:23;136867.00;0.46;237.17;0.00;0.00;0.62;;;;;11.70;1.00;;;;;;2272471;61;988;-87
2022/03/13 03:11:52;131358.00;0.44;227.67;0.00;0.00;0.62;;;;;11.80;1.00;;;;;;2272480;61;980;-87
2022/03/13 03:14:20;322123.00;1.07;555.95;50157.00;0.17;87.46;;;;;11.90;1.00;;;;;;2272543;61;1284;-87
2022/03/13 03:16:50;101522.00;0.34;176.20;0.00;0.00;0.62;;;;;12.00;1.00;;;;;;2272515;61;1998;-86
2022/03/13 03:19:17;167028.00;0.56;289.15;0.00;0.00;0.62;;;;;12.10;1.00;;;;;;2272476;61;1117;-89
2022/03/13 03:21:44;70156.00;0.23;122.03;0.00;0.00;0.62;;;;;11.80;1.00;;;;;;2272464;61;998;-88
2022/03/13 03:24:13;197199.00;0.66;341.10;0.00;0.00;0.62;;;;;11.50;1.00;;;;;;2272321;61;1278;-85
2022/03/13 03:26:41;282697.00;0.94;488.17;0.00;0.00;0.62;;;;;11.10;1.00;;;;;;2272460;61;933;-87
2022/03/13 03:29:10;440348.00;1.47;759.18;0.00;0.00;0.62;;;;;9.50;1.00;;;;;;2272533;61;1025;-88
2022/03/13 03:31:42;144434.00;0.48;250.21;0.00;0.00;0.62;;;;;9.00;1.00;;;;;;2272527;61;922;-87
2022/03/13 03:34:11;211490.00;0.70;365.70;0.00;0.00;0.62;;;;;9.30;1.00;;;;;;2272443;61;1400;-87
2022/03/13 03:36:41;198524.00;0.66;343.38;0.00;0.00;0.62;;;;;9.40;1.00;;;;;;2272318;61;2002;-85
2022/03/13 03:39:08;146940.00;0.49;254.53;0.00;0.00;0.62;;;;;9.80;1.00;;;;;;2272393;61;1230;-86
2022/03/13 03:41:35;255092.00;0.85;440.71;0.00;0.00;0.62;;;;;10.20;1.00;;;;;;2272432;61;934;-87
2022/03/13 03:44:02;169842.00;0.57;293.99;0.00;0.00;0.62;;;;;10.40;1.00;;;;;;2272421;61;1396;-86
2022/03/13 03:46:31;174256.00;0.58;301.60;0.00;0.00;0.62;;;;;10.50;1.00;;;;;;2272393;61;966;-87
2022/03/13 03:48:58;84034.00;0.28;146.00;0.00;0.00;0.62;;;;;10.50;1.00;;;;;;2272381;61;1577;-86
2022/03/13 03:51:25;512227.00;1.71;882.88;81137.00;0.27;141.00;;;;;10.40;1.00;;;;;;2272442;61;1122;-86
2022/03/13 03:53:52;240771.00;0.80;416.08;0.00;0.00;0.62;;;;;10.10;1.00;;;;;;2272390;61;1373;-84
2022/03/13 03:56:19;102966.00;0.34;178.69;0.00;0.00;0.62;;;;;9.60;1.00;;;;;;2272240;61;2001;-84
2022/03/13 04:01:13;392102.00;1.31;676.23;0.00;0.00;0.62;;;;;10.00;1.00;;;;;;2270168;61;1401;-87
2022/03/13 04:03:42;390680.00;1.30;673.78;0.00;0.00;0.62;;;;;10.40;1.00;;;;;;2268292;61;950;-86
2022/03/13 04:06:09;173573.00;0.58;300.42;0.00;0.00;0.62;;;;;10.40;1.00;;;;;;2268304;61;1438;-87
2022/03/13 04:08:36;74951.00;0.25;130.32;0.00;0.00;0.62;;;;;10.50;1.00;;;;;;2268365;61;1287;-86
2022/03/13 04:11:04;265339.00;0.88;458.33;0.00;0.00;0.62;;;;;10.60;1.00;;;;;;2268307;61;1440;-86
2022/03/13 04:13:33;102670.00;0.34;178.18;0.00;0.00;0.62;;;;;10.90;1.00;;;;;;2268361;61;1094;-85
2022/03/13 04:16:00;139499.00;0.46;241.71;0.00;0.00;0.62;;;;;10.60;1.00;;;;;;2268099;61;2006;-87
2022/03/13 04:18:27;397531.00;1.33;685.56;23313.00;0.08;41.01;;;;;10.40;1.00;;;;;;2268271;61;1564;-86
2022/03/13 04:20:59;159225.00;0.53;275.70;0.00;0.00;0.62;;;;;10.20;1.00;;;;;;2268225;61;983;-87
2022/03/13 04:23:26;122611552.00;408.71;74674864.00;0.00;0.00;0.62;;;;;9.70;1.00;;;;;;2268262;61;1617;-85
2022/03/13 04:25:53;142013.00;0.47;246.04;0.00;0.00;0.62;;;;;9.80;1.00;;;;;;2268160;61;1592;-86
2022/03/13 04:28:21;356815.00;1.19;615.57;0.00;0.00;0.62;;;;;9.90;1.00;;;;;;2268358;61;1021;-86
2022/03/13 04:30:52;67659.00;0.23;117.71;0.00;0.00;0.62;;;;;10.10;1.00;;;;;;2268224;61;1003;-87
2022/03/13 04:33:21;234684.00;0.78;405.61;0.00;0.00;0.62;;;;;10.70;1.00;;;;;;2268244;61;973;-87
2022/03/13 04:35:48;201825.00;0.67;349.07;0.00;0.00;0.62;;;;;10.90;1.00;;;;;;2268221;61;1914;-86
2022/03/13 04:38:16;207810.00;0.69;359.37;0.00;0.00;0.62;;;;;11.00;1.00;;;;;;2268249;61;1121;-86
2022/03/13 04:40:44;132484.00;0.44;229.61;0.00;0.00;0.62;;;;;11.20;1.00;;;;;;2268166;61;1047;-86
2022/03/13 04:43:11;188403.00;0.63;325.96;18206.00;0.06;32.16;;;;;11.20;1.00;;;;;;2268162;61;1496;-86
2022/03/13 04:45:38;219179.00;0.73;378.93;15316.00;0.05;27.16;;;;;11.00;1.00;;;;;;2268154;61;1723;-86
2022/03/13 04:48:06;178221.00;0.59;308.43;0.00;0.00;0.62;;;;;10.90;1.00;;;;;;2268152;61;1054;-85
2022/03/13 04:50:33;250319.00;0.83;432.50;48336.00;0.16;84.31;;;;;11.20;1.00;;;;;;2268280;61;1142;-86
2022/03/13 04:53:00;180055.00;0.60;311.58;0.00;0.00;0.62;;;;;11.40;1.00;;;;;;2268273;61;996;-87
2022/03/13 04:55:28;88277.00;0.29;153.33;0.00;0.00;0.62;;;;;11.40;1.00;;;;;;2268041;61;1849;-87
2022/03/13 04:57:55;188036.00;0.63;325.33;0.00;0.00;0.62;;;;;11.00;1.00;;;;;;2268064;61;2007;-87
2022/03/13 05:00:25;196811.00;0.66;340.43;5928.00;0.02;10.89;;;;;10.70;1.00;;;;;;2268182;61;1456;-87
2022/03/13 05:02:51;106574.00;0.36;184.92;0.00;0.00;0.62;;;;;10.80;1.00;;;;;;2268086;61;880;-86
2022/03/13 05:05:19;766774.00;2.56;1323.24;22688.00;0.08;39.92;;;;;10.30;1.00;;;;;;2268152;61;1270;-89
2022/03/13 05:07:46;497410.00;1.66;857.36;36268.00;0.12;63.43;;;;;10.00;1.00;;;;;;2268135;61;983;-85
2022/03/13 05:10:13;1638591.00;5.46;2906.72;88014.00;0.29;152.88;;;;;9.70;1.00;;;;;;2268047;61;1225;-85
2022/03/13 05:12:42;1076981.00;3.59;1869.31;75255.00;0.25;130.84;;;;;9.40;1.00;;;;;;2268121;61;1633;-85
2022/03/13 05:15:10;799433.00;2.66;1380.13;31857.00;0.11;55.80;;;;;9.00;1.00;;;;;;2267979;61;1343;-86
2022/03/13 05:17:37;118625288.00;395.42;67619592.00;10434.00;0.03;18.70;;;;;8.60;1.00;;;;;;2268049;61;1920;-86
2022/03/13 05:20:05;867697.00;2.89;1499.45;7265.00;0.02;13.21;;;;;8.30;1.00;;;;;;2268158;61;963;-86
2022/03/13 05:22:32;1164764.00;3.88;2026.64;3700.00;0.01;7.03;;;;;7.60;1.00;;;;;;2268147;61;1619;-86
2022/03/13 05:24:59;1100485.00;3.67;1911.29;123765.00;0.41;214.58;;;;;7.30;1.00;;;;;;2267972;61;1392;-87
2022/03/13 05:27:26;1538993.00;5.13;2716.71;69277.00;0.23;120.51;;;;;7.00;1.00;;;;;;2268309;61;1191;-87
2022/03/13 05:29:55;951457.00;3.17;1646.68;29452.00;0.10;51.63;;;;;7.10;1.00;;;;;;2268760;61;1560;-87
2022/03/13 05:32:22;1757777.00;5.86;3138.25;45582.00;0.15;79.54;;;;;6.90;1.00;;;;;;2268643;61;948;-86
2022/03/13 05:34:52;1431059.00;4.77;2514.05;39225.00;0.13;68.55;;;;;6.70;1.00;;;;;;2268701;61;1341;-87
2022/03/13 05:37:19;1143560.00;3.81;1988.50;39236.00;0.13;68.57;;;;;6.50;1.00;;;;;;2268780;61;1988;-87
2022/03/13 05:39:46;1350160.00;4.50;2364.20;65483.00;0.22;113.95;;;;;6.90;1.00;;;;;;2268680;61;1689;-87
2022/03/13 05:42:13;1651787.00;5.51;2932.13;188409.00;0.63;325.97;;;;;7.20;1.00;;;;;;2268716;61;1004;-86
2022/03/13 05:44:40;1065560.00;3.55;1848.94;116137.00;0.39;201.42;;;;;7.20;1.00;;;;;;2268768;61;1400;-87
2022/03/13 05:47:11;1158707.00;3.86;2015.74;131460.00;0.44;227.85;;;;;6.80;1.00;;;;;;2268717;61;1552;-86
2022/03/13 05:49:38;665448.00;2.22;1147.37;94781.00;0.32;164.56;;;;;6.80;1.00;;;;;;2268787;61;995;-88
2022/03/13 05:52:07;836910.00;2.79;1445.57;154421.00;0.51;267.43;;;;;7.00;1.00;;;;;;2268689;61;1680;-87
2022/03/13 05:54:33;539519.00;1.80;929.89;89531.00;0.30;155.50;;;;;6.90;1.00;;;;;;2268686;61;1370;-87
2022/03/13 05:57:03;421521.00;1.41;726.81;94118.00;0.31;163.42;;;;;7.10;1.00;;;;;;2268633;61;1987;-89
2022/03/13 05:59:30;561742.00;1.87;968.20;99889.00;0.33;173.38;;;;;7.20;1.00;;;;;;2268599;61;1258;-85
2022/03/13 06:02:01;797027.00;2.66;1375.94;107883.00;0.36;187.18;;;;;7.20;1.00;;;;;;2268734;61;1084;-86
2022/03/13 06:04:29;661918.00;2.21;1141.26;94425.00;0.31;163.95;;;;;7.70;1.00;;;;;;2268695;61;1297;-86
2022/03/13 06:06:56;513266.00;1.71;884.67;89281.00;0.30;155.07;;;;;8.30;1.00;;;;;;2268671;61;1111;-87
2022/03/13 06:09:24;459591.00;1.53;792.28;92224.00;0.31;160.15;;;;;8.80;1.00;;;;;;2268581;61;1260;-86
2022/03/13 06:11:51;440399.00;1.47;759.27;91149.00;0.30;158.29;;;;;9.30;1.00;;;;;;2268512;61;1528;-86
2022/03/13 06:14:21;677659.00;2.26;1168.52;169059.00;0.56;292.65;;;;;9.60;1.00;;;;;;2268651;61;1646;-86
2022/03/13 06:16:50;458198.00;1.53;789.88;92436.00;0.31;160.51;;;;;9.80;1.00;;;;;;2316976;56;3782;-85
2022/03/13 06:19:17;416093.00;1.39;717.47;75729.00;0.25;131.66;;;;;9.80;1.00;;;;;;2272411;61;1463;-85
2022/03/13 06:21:47;284988.00;0.95;492.11;43749.00;0.15;76.37;;;;;9.70;1.00;;;;;;2272616;61;1106;-85
2022/03/13 06:24:14;198965.00;0.66;344.14;0.00;0.00;0.62;;;;;9.30;1.00;;;;;;2272463;61;1301;-87
2022/03/13 06:26:41;377939.00;1.26;651.88;0.00;0.00;0.62;;;;;8.60;1.00;;;;;;2272683;61;1116;-86
2022/03/13 06:29:08;922736.00;3.08;1596.09;193460.00;0.64;334.67;;;;;8.50;1.00;;;;;;2272443;61;2217;-87
2022/03/13 06:31:35;335033.00;1.12;578.14;0.00;0.00;0.62;;;;;7.40;1.00;;;;;;2272557;61;1034;-88
2022/03/13 06:34:02;426458.00;1.42;735.29;51210.00;0.17;89.28;;;;;6.10;1.00;;;;;;2272476;61;1403;-88
2022/03/13 06:36:29;254362.00;0.85;439.45;0.00;0.00;0.62;;;;;6.10;1.00;;;;;;2272616;61;1989;-89
2022/03/13 06:41:31;926563.00;3.09;1602.82;5734.00;0.02;10.56;;;;;6.80;1.00;;;;;;2270149;61;1417;-87
2022/03/13 06:43:58;357008.00;1.19;615.91;0.00;0.00;0.62;;;;;7.80;1.00;;;;;;2268492;61;1363;-86
2022/03/13 06:46:25;117273.00;0.39;203.38;0.00;0.00;0.62;;;;;9.10;1.00;;;;;;2268424;61;1111;-85
2022/03/13 06:48:52;315361.00;1.05;544.32;0.00;0.00;0.62;;;;;10.00;1.00;;;;;;2268448;61;1559;-85
2022/03/13 06:51:20;242955.00;0.81;419.83;0.00;0.00;0.62;;;;;10.40;1.00;;;;;;2268423;61;1254;-85
2022/03/13 06:53:46;148937.00;0.50;257.98;0.00;0.00;0.62;;;;;10.60;1.00;;;;;;2268436;61;1321;-86
2022/03/13 06:56:13;160581.00;0.54;278.04;0.00;0.00;0.62;;;;;10.60;1.00;;;;;;2268491;61;990;-86
2022/03/13 06:58:47;102827.00;0.34;178.45;20947.00;0.07;36.91;;;;;10.70;1.00;;;;;;2268442;61;1989;-85
2022/03/13 07:01:14;341640.00;1.14;589.49;0.00;0.00;0.62;;;;;11.70;1.00;;;;;;2268453;61;1590;-86
2022/03/13 07:03:42;547989.00;1.83;944.49;23097.00;0.08;40.63;;;;;12.60;1.00;;;;;;2268477;61;983;-86
2022/03/13 07:06:09;599094.00;2.00;1032.66;0.00;0.00;0.62;;;;;13.10;1.00;;;;;;2268437;61;1310;-86
2022/03/13 07:08:36;336307.00;1.12;580.33;24865.00;0.08;43.69;;;;;13.00;1.00;;;;;;2268503;61;1039;-87
2022/03/13 07:11:03;434404.00;1.45;748.96;0.00;0.00;0.62;;;;;13.10;1.00;;;;;;2268361;61;1039;-88
2022/03/13 07:13:32;169032.00;0.56;292.60;0.00;0.00;0.62;;;;;13.50;1.00;;;;;;2268391;61;1679;-87
2022/03/13 07:16:03;200645.00;0.67;347.03;0.00;0.00;0.62;;;;;13.30;1.00;;;;;;2268471;61;1400;-86
2022/03/13 07:18:30;321160.00;1.07;554.29;31239.00;0.10;54.73;;;;;12.40;1.00;;;;;;2268434;61;2007;-87
2022/03/13 07:20:58;168503.00;0.56;291.69;0.00;0.00;0.62;;;;;12.30;1.00;;;;;;2268476;61;1083;-85
2022/03/13 07:23:25;146483.00;0.49;253.75;0.00;0.00;0.62;;;;;12.40;1.00;;;;;;2268419;61;1139;-87
2022/03/13 07:25:52;347123.00;1.16;598.92;0.00;0.00;0.62;;;;;12.40;1.00;;;;;;2268402;61;1520;-86
2022/03/13 07:28:20;172571.00;0.58;298.70;0.00;0.00;0.62;;;;;12.10;1.00;;;;;;2268411;61;1624;-87
2022/03/13 07:30:47;242630.00;0.81;419.27;0.00;0.00;0.62;;;;;12.30;1.00;;;;;;2268490;61;1072;-87
2022/03/13 07:33:16;333798.00;1.11;576.01;0.00;0.00;0.62;;;;;12.80;1.00;;;;;;2268317;61;1664;-86
2022/03/13 07:35:44;181436.00;0.60;313.96;0.00;0.00;0.62;;;;;12.70;1.00;;;;;;2268368;61;1555;-87
2022/03/13 07:38:11;103877.00;0.35;180.26;16499.00;0.05;29.21;;;;;12.90;1.00;;;;;;2268179;61;1918;-87
2022/03/13 07:40:39;468212.00;1.56;807.11;7662.00;0.03;13.90;;;;;12.90;1.00;;;;;;2267825;61;1556;-87
2022/03/13 07:43:06;664133.00;2.21;1145.09;31164.00;0.10;54.60;;;;;13.10;1.00;;;;;;2268286;61;1032;-87
2022/03/13 07:45:33;1065967.00;3.55;1849.67;66336.00;0.22;115.43;;;;;13.20;1.00;;;;;;2268345;61;1382;-86
2022/03/13 07:47:59;1198496.00;3.99;2087.50;70502.00;0.24;122.63;;;;;13.30;1.00;;;;;;2268313;61;1021;-88
2022/03/13 07:50:32;910235.00;3.03;1574.10;79659.00;0.27;138.45;;;;;13.50;1.00;;;;;;2268187;61;1012;-87
2022/03/13 07:53:05;707018.00;2.36;1219.41;59458.00;0.20;103.54;;;;;13.90;1.00;;;;;;2268082;61;933;-87
2022/03/13 07:55:34;157672.00;0.53;273.03;65337.00;0.22;113.70;;;;;13.80;1.00;;;;;;2268218;61;1636;-86
2022/03/13 07:58:01;677939.00;2.26;1169.00;49631.00;0.17;86.55;;;;;13.70;1.00;;;;;;2268167;61;1990;-88
2022/03/13 08:00:28;1045446.00;3.48;1813.13;14283.00;0.05;25.37;;;;;14.50;1.00;;;;;;2268296;61;1134;-86
2022/03/13 08:02:55;1293247.00;4.31;2259.75;60906.00;0.20;106.04;;;;;14.50;1.00;;;;;;2268273;61;1134;-87
2022/03/13 08:05:22;766260.00;2.55;1322.34;20207.00;0.07;35.63;;;;;14.90;1.00;;;;;;2268207;61;1630;-88
2022/03/13 08:07:52;744412.00;2.48;1284.34;5475.00;0.02;10.11;;;;;14.80;1.00;;;;;;2268254;61;1522;-86
2022/03/13 08:10:20;789184.00;2.63;1362.27;4811.00;0.02;8.96;;;;;14.80;1.00;;;;;;2268275;61;956;-86
2022/03/13 08:12:48;838114.00;2.79;1447.68;4478.00;0.01;8.38;;;;;14.70;1.00;;;;;;2268307;61;1599;-87
2022/03/13 08:15:16;769824.00;2.57;1328.55;16264.00;0.05;28.80;;;;;14.40;1.00;;;;;;2268323;61;1402;-89
2022/03/13 08:17:43;981100.00;3.27;1699.03;28794.00;0.10;50.50;;;;;14.70;1.00;;;;;;2268212;61;1911;-87
2022/03/13 08:20:11;1085407.00;3.62;1884.35;64676.00;0.22;112.56;;;;;14.90;1.00;;;;;;2268311;61;1107;-87
2022/03/13 08:22:38;710641.00;2.37;1225.70;38183.00;0.13;66.74;;;;;14.80;1.00;;;;;;2268247;61;1047;-88
2022/03/13 08:25:08;1027051.00;3.42;1780.44;54260.00;0.18;94.55;;;;;15.40;1.00;;;;;;2268201;61;1275;-86
2022/03/13 08:27:35;819023.00;2.73;1414.32;0.00;0.00;0.62;;;;;15.80;1.00;;;;;;2268203;61;1565;-87
2022/03/13 08:30:02;745634.00;2.49;1286.47;24016.00;0.08;42.22;;;;;15.70;1.00;;;;;;2268345;61;1069;-86
2022/03/13 08:32:29;1481267.00;4.94;2607.92;210562.00;0.70;364.10;;;;;15.00;1.00;;;;;;2268002;61;1676;-88
2022/03/13 08:34:56;1586649.00;5.29;2807.25;36450.00;0.12;63.75;;;;;15.90;1.00;;;;;;2268285;61;1338;-88
2022/03/13 08:37:23;1312453.00;4.37;2294.91;170474.00;0.57;295.08;;;;;16.00;1.00;;;;;;2268281;61;1919;-87
2022/03/13 08:39:53;1795064.00;5.98;3211.66;216824.00;0.72;374.88;;;;;15.60;1.00;;;;;;2268136;61;1594;-88
2022/03/13 08:42:21;1384686.00;4.62;2427.95;219162.00;0.73;378.90;;;;;15.10;1.00;;;;;;2268230;61;1050;-86
2022/03/13 08:44:48;1044851.00;3.48;1812.07;83024.00;0.28;144.26;;;;;15.30;1.00;;;;;;2268131;61;1281;-86
2022/03/13 08:47:16;1085659.00;3.62;1884.80;175799.00;0.59;304.25;;;;;15.70;1.00;;;;;;2268040;61;1609;-88
2022/03/13 08:49:43;677218.00;2.26;1167.75;96946.00;0.32;168.30;;;;;15.30;1.00;;;;;;2268041;61;991;-86
2022/03/13 08:52:10;455116.00;1.52;784.58;88587.00;0.30;153.87;;;;;14.90;1.00;;;;;;2268124;61;1461;-87
2022/03/13 08:54:37;453614.00;1.51;782.00;75557.00;0.25;131.36;;;;;14.70;1.00;;;;;;2268105;61;1385;-87
2022/03/13 08:57:04;526766.00;1.76;907.92;78883.00;0.26;137.11;;;;;14.90;1.00;;;;;;2268081;61;2000;-86
2022/03/13 08:59:37;410149.00;1.37;707.25;95902.00;0.32;166.50;;;;;14.80;1.00;;;;;;2268108;61;1023;-87
2022/03/13 09:02:06;435247.00;1.45;750.41;89239.00;0.30;154.99;;;;;14.70;1.00;;;;;;2268039;61;1067;-87
2022/03/13 09:04:32;383328.00;1.28;661.15;85847.00;0.29;149.14;;;;;14.80;1.00;;;;;;2268152;61;1299;-87
2022/03/13 09:07:00;418297.00;1.39;721.26;71128.00;0.24;123.71;;;;;14.00;1.00;;;;;;2268130;61;1518;-87
2022/03/13 09:09:27;485299.00;1.62;836.52;80372.00;0.27;139.68;;;;;13.90;1.00;;;;;;2267937;61;1746;-86
2022/03/13 09:14:39;1685534.00;5.62;2997.35;84817.00;0.28;147.36;;;;;14.00;1.00;;;;;;2257814;61;1416;-87
2022/03/13 09:17:06;990097.00;3.30;1714.94;162373.00;0.54;281.13;;;;;14.30;1.00;;;;;;2255968;61;1925;-87
2022/03/13 09:19:33;1088813.00;3.63;1890.43;101019.00;0.34;175.33;;;;;14.40;1.00;;;;;;2256055;61;1368;-88
2022/03/13 09:22:00;1255699.00;4.19;2191.25;155866.00;0.52;269.92;;;;;14.60;1.00;;;;;;2255895;61;1049;-88
2022/03/13 09:24:27;700588.00;2.34;1208.26;93069.00;0.31;161.61;;;;;14.50;1.00;;;;;;2255920;61;1381;-86
2022/03/13 09:26:55;565115.00;1.88;974.02;85587.00;0.29;148.69;;;;;13.80;1.00;;;;;;2256068;61;1770;-87
2022/03/13 09:29:22;333980.00;1.11;576.33;87864.00;0.29;152.62;;;;;13.80;1.00;;;;;;2256084;61;988;-87
2022/03/13 09:31:50;494595.00;1.65;852.52;101590.00;0.34;176.32;;;;;14.10;1.00;;;;;;2255893;61;1701;-89
2022/03/13 09:34:17;464037.00;1.55;799.93;98132.00;0.33;170.35;;;;;14.10;1.00;;;;;;2256048;61;1415;-86
2022/03/13 09:36:44;315055.00;1.05;543.80;58896.00;0.20;102.57;;;;;14.10;1.00;;;;;;2255940;61;1040;-87
2022/03/13 09:39:11;308916.00;1.03;533.25;81781.00;0.27;142.11;;;;;13.80;1.00;;;;;;2255836;61;2052;-87
2022/03/13 09:41:39;346835.00;1.16;598.42;84312.00;0.28;146.49;;;;;13.90;1.00;;;;;;2255919;61;1437;-89
2022/03/13 09:44:07;532113.00;1.77;917.13;111909.00;0.37;194.12;;;;;14.10;1.00;;;;;;2255977;61;1739;-87
2022/03/13 09:46:36;570987.00;1.90;984.15;79766.00;0.27;138.63;;;;;14.40;1.00;;;;;;2255965;61;1655;-87
2022/03/13 09:49:05;324130.00;1.08;559.40;89224.00;0.30;154.97;;;;;14.40;1.00;;;;;;2255938;61;1592;-87
2022/03/13 09:51:33;419973.00;1.40;724.14;81337.00;0.27;141.35;;;;;14.10;1.00;;;;;;2256058;61;1149;-88
2022/03/13 09:54:01;279060.00;0.93;481.92;89956.00;0.30;156.23;;;;;14.00;1.00;;;;;;2255932;61;1718;-86